createdAt,value
2023-02-11T00:04:12.610Z,392.73
2023-02-11T00:09:12.546Z,392.05
2023-02-11T00:14:12.478Z,390.69
2023-02-11T00:19:12.384Z,388.66
2023-02-11T00:24:12.347Z,390.01
2023-02-11T00:29:12.310Z,389.11
2023-02-11T00:34:12.236Z,387.32
2023-02-11T00:39:12.140Z,386.88
2023-02-11T00:44:12.123Z,387.32
2023-02-11T00:49:12.021Z,385.99
2023-02-11T00:54:11.979Z,385.55
2023-02-11T00:59:11.866Z,386.88
2023-02-11T01:04:11.848Z,386.43
2023-02-11T01:09:29.011Z,384.01
2023-02-11T01:14:21.405Z,383.79
2023-02-11T01:19:21.336Z,383.36
2023-02-11T01:24:21.262Z,383.14
2023-02-11T01:29:21.213Z,384.45
2023-02-11T01:34:21.138Z,384.67
2023-02-11T01:39:21.089Z,384.45
2023-02-11T01:44:20.990Z,384.01
2023-02-11T01:49:21.006Z,383.58
2023-02-11T01:54:20.872Z,386.21
2023-02-11T01:59:20.837Z,385.99
2023-02-11T02:04:20.761Z,385.55
2023-02-11T02:09:20.716Z,389.11
2023-02-11T02:14:20.613Z,385.55
2023-02-11T02:19:20.612Z,386.43
2023-02-11T02:24:20.485Z,385.99
2023-02-11T02:29:20.437Z,386.43
2023-02-11T02:34:20.355Z,388.88
2023-02-11T02:39:20.331Z,387.54
2023-02-11T02:44:20.221Z,387.32
2023-02-11T02:49:20.187Z,389.11
2023-02-11T02:54:20.093Z,391.14
2023-02-11T02:59:20.080Z,390.91
2023-02-11T03:04:19.988Z,391.59
2023-02-11T03:09:20.582Z,392.05
2023-02-11T03:14:19.852Z,392.05
2023-02-11T03:19:19.810Z,393.42
2023-02-11T03:24:19.714Z,393.88
2023-02-11T03:29:19.641Z,394.34
2023-02-11T03:34:19.583Z,396.20
2023-02-11T03:39:19.550Z,395.50
2023-02-11T03:44:19.497Z,398.30
2023-02-11T03:49:19.419Z,400.67
2023-02-11T03:54:19.339Z,401.62
2023-02-11T03:59:19.335Z,402.58
2023-02-11T04:04:19.199Z,403.06
2023-02-11T04:09:19.139Z,405.98
2023-02-11T04:14:19.091Z,403.79
2023-02-11T04:19:19.029Z,405.00
2023-02-11T04:24:18.949Z,405.24
2023-02-11T04:29:18.891Z,402.34
2023-02-11T04:34:18.821Z,402.82
2023-02-11T04:39:18.772Z,403.06
2023-02-11T04:44:18.673Z,401.62
2023-02-11T04:49:18.653Z,402.58
2023-02-11T04:54:18.558Z,403.79
2023-02-11T04:59:18.519Z,402.34
2023-02-11T05:04:18.480Z,402.10
2023-02-11T05:09:18.402Z,405.24
2023-02-11T05:14:18.302Z,406.71
2023-02-11T05:19:34.311Z,405.73
2023-02-11T05:24:26.720Z,405.98
2023-02-11T05:29:26.659Z,405.24
2023-02-11T05:34:26.593Z,405.24
2023-02-11T05:39:26.512Z,407.45
2023-02-11T05:44:26.456Z,405.49
2023-02-11T05:49:26.404Z,405.98
2023-02-11T05:54:26.305Z,407.45
2023-02-11T05:59:26.976Z,407.45
2023-02-11T06:04:26.167Z,408.19
2023-02-11T06:09:26.148Z,407.94
2023-02-11T06:14:26.054Z,407.69
2023-02-11T06:19:25.991Z,410.67
2023-02-11T06:24:48.113Z,414.46
2023-02-11T06:29:26.884Z,418.58
2023-02-11T06:34:25.803Z,419.62
2023-02-11T06:39:25.744Z,419.10
2023-02-11T06:44:25.682Z,418.32
2023-02-11T06:49:25.649Z,418.06
2023-02-11T06:54:25.638Z,417.02
2023-02-11T06:59:25.516Z,417.02
2023-02-11T07:04:25.440Z,420.66
2023-02-11T07:09:25.370Z,417.80
2023-02-11T07:14:25.311Z,414.46
2023-02-11T07:19:25.256Z,407.94
2023-02-11T07:24:25.202Z,406.46
2023-02-11T07:29:25.118Z,404.03
2023-02-11T07:34:25.144Z,402.10
2023-02-11T07:39:24.999Z,399.01
2023-02-11T07:44:24.878Z,396.66
2023-02-11T07:49:24.847Z,392.73
2023-02-11T07:54:24.758Z,389.56
2023-02-11T07:59:24.742Z,389.78
2023-02-11T08:04:24.647Z,390.01
2023-02-11T08:09:24.568Z,386.21
2023-02-11T08:14:24.545Z,391.59
2023-02-11T08:19:24.466Z,388.88
2023-02-11T08:24:24.394Z,387.99
2023-02-11T08:29:24.314Z,388.21
2023-02-11T08:34:24.260Z,391.14
2023-02-11T08:39:24.214Z,390.91
2023-02-11T08:44:24.131Z,387.77
2023-02-11T08:49:24.072Z,385.11
2023-02-11T08:54:23.999Z,383.79
2023-02-11T08:59:23.926Z,382.49
2023-02-11T09:04:23.859Z,375.55
2023-02-11T09:09:23.815Z,379.05
2023-02-11T09:14:23.733Z,373.86
2023-02-11T09:19:23.737Z,372.60
2023-02-11T09:24:23.610Z,369.70
2023-02-11T09:29:23.558Z,368.05
2023-02-11T09:34:23.503Z,368.05
2023-02-11T09:39:23.474Z,370.11
2023-02-11T09:44:23.390Z,367.24
2023-02-11T09:49:23.281Z,365.62
2023-02-11T09:54:23.262Z,364.02
2023-02-11T09:59:23.163Z,363.62
2023-02-11T10:04:23.166Z,362.82
2023-02-11T10:09:23.043Z,358.12
2023-02-11T10:14:23.081Z,357.74
2023-02-11T10:19:22.912Z,356.58
2023-02-11T10:24:22.837Z,356.58
2023-02-11T10:29:22.778Z,353.92
2023-02-11T10:34:22.716Z,353.17
2023-02-11T10:39:22.638Z,352.42
2023-02-11T10:44:22.591Z,348.71
2023-02-11T10:49:22.513Z,347.98
2023-02-11T10:54:22.433Z,347.98
2023-02-11T10:59:22.411Z,346.53
2023-02-11T11:04:22.389Z,344.01
2023-02-11T11:09:22.258Z,342.24
2023-02-11T11:14:22.169Z,340.83
2023-02-11T11:19:22.284Z,340.83
2023-02-11T11:24:22.091Z,341.54
2023-02-11T11:29:22.058Z,339.44
2023-02-11T11:34:21.913Z,339.79
2023-02-11T11:39:21.876Z,337.37
2023-02-11T11:44:21.788Z,336.00
2023-02-11T11:49:21.731Z,333.30
2023-02-11T11:54:21.649Z,331.97
2023-02-11T11:59:21.590Z,331.30
2023-02-11T12:04:21.498Z,332.30
2023-02-11T12:09:22.507Z,331.64
2023-02-11T12:14:21.480Z,329.01
2023-02-11T12:19:21.364Z,329.66
2023-02-11T12:24:21.216Z,329.99
2023-02-11T12:29:21.204Z,329.99
2023-02-11T12:34:21.129Z,328.03
2023-02-11T12:39:21.073Z,330.32
2023-02-11T12:44:20.982Z,331.64
2023-02-11T12:49:20.918Z,331.97
2023-02-11T12:54:20.873Z,329.01
2023-02-11T12:59:20.814Z,330.97
2023-02-11T13:04:20.749Z,331.64
2023-02-11T13:09:20.716Z,331.30
2023-02-11T13:14:20.619Z,329.01
2023-02-11T13:19:20.526Z,325.77
2023-02-11T13:24:20.477Z,323.87
2023-02-11T13:29:20.415Z,321.98
2023-02-11T13:34:20.315Z,328.03
2023-02-11T13:39:20.271Z,327.71
2023-02-11T13:44:20.200Z,326.42
2023-02-11T13:49:20.129Z,326.10
2023-02-11T13:54:20.105Z,324.18
2023-02-11T13:59:20.017Z,324.82
2023-02-11T14:04:19.921Z,322.29
2023-02-11T14:09:19.878Z,321.67
2023-02-11T14:14:19.813Z,321.05
2023-02-11T14:19:19.774Z,321.67
2023-02-11T14:24:19.656Z,320.43
2023-02-11T14:29:19.616Z,319.50
2023-02-11T14:34:19.596Z,318.27
2023-02-11T14:39:19.525Z,317.97
2023-02-11T14:44:19.466Z,317.97
2023-02-11T14:49:19.367Z,315.55
2023-02-11T14:54:19.239Z,316.15
2023-02-11T14:59:19.258Z,311.40
2023-02-11T15:04:19.139Z,313.17
2023-02-11T15:09:19.086Z,310.53
2023-02-11T15:14:19.010Z,309.95
2023-02-11T15:19:18.997Z,308.51
2023-02-11T15:24:18.888Z,306.51
2023-02-11T15:29:18.937Z,307.94
2023-02-11T15:34:18.911Z,306.23
2023-02-11T15:39:18.687Z,306.23
2023-02-11T15:44:18.679Z,305.39
2023-02-11T15:49:18.557Z,306.51
2023-02-11T15:54:18.473Z,306.23
2023-02-11T15:59:18.426Z,305.11
2023-02-11T16:04:18.381Z,305.67
2023-02-11T16:09:18.299Z,305.39
2023-02-11T16:14:18.211Z,306.80
2023-02-11T16:19:18.162Z,307.65
2023-02-11T16:24:18.118Z,307.08
2023-02-11T16:29:18.053Z,305.67
2023-02-11T16:34:17.990Z,305.11
2023-02-11T16:39:17.911Z,304.55
2023-02-11T16:44:17.837Z,307.08
2023-02-11T16:49:17.917Z,307.37
2023-02-11T16:54:17.699Z,305.11
2023-02-11T16:59:17.633Z,305.39
2023-02-11T17:04:17.671Z,303.71
2023-02-11T17:09:17.521Z,302.60
2023-02-11T17:14:17.435Z,300.68
2023-02-11T17:19:17.368Z,299.60
2023-02-11T17:24:17.322Z,300.41
2023-02-11T17:29:17.233Z,299.60
2023-02-11T17:34:17.149Z,296.91
2023-02-11T17:39:17.118Z,297.45
2023-02-11T17:44:17.007Z,296.91
2023-02-11T17:49:16.990Z,297.71
2023-02-11T17:54:16.894Z,300.95
2023-02-11T17:59:16.855Z,296.91
2023-02-11T18:04:16.887Z,295.86
2023-02-11T18:09:16.745Z,295.07
2023-02-11T18:14:16.641Z,295.33
2023-02-11T18:19:16.586Z,295.59
2023-02-11T18:24:16.507Z,294.54
2023-02-11T18:29:16.501Z,294.02
2023-02-11T18:34:16.373Z,294.80
2023-02-11T18:39:16.345Z,294.28
2023-02-11T18:44:16.239Z,296.38
2023-02-11T18:49:16.211Z,295.33
2023-02-11T18:54:16.268Z,294.54
2023-02-11T18:59:16.061Z,294.02
2023-02-11T19:04:16.064Z,294.02
2023-02-11T19:09:15.913Z,293.76
2023-02-11T19:14:15.853Z,296.12
2023-02-11T19:19:15.789Z,297.98
2023-02-11T19:24:15.703Z,296.12
2023-02-11T19:29:15.662Z,296.91
2023-02-11T19:34:15.577Z,296.91
2023-02-11T19:39:15.531Z,296.91
2023-02-11T19:44:15.457Z,297.98
2023-02-11T19:49:15.430Z,298.52
2023-02-11T19:54:15.301Z,299.05
2023-02-11T19:59:15.260Z,300.14
2023-02-11T20:04:15.169Z,299.87
2023-02-11T20:09:15.137Z,297.98
2023-02-11T20:14:15.070Z,299.87
2023-02-11T20:19:14.997Z,297.98
2023-02-11T20:24:14.943Z,299.87
2023-02-11T20:29:14.869Z,299.60
2023-02-11T20:34:15.004Z,298.79
2023-02-11T20:39:15.099Z,299.60
2023-02-11T20:44:14.718Z,297.45
2023-02-11T20:49:14.560Z,297.98
2023-02-11T20:54:14.533Z,299.05
2023-02-11T20:59:14.479Z,298.25
2023-02-11T21:04:14.469Z,299.33
2023-02-11T21:09:14.397Z,298.79
2023-02-11T21:14:14.311Z,297.98
2023-02-11T21:19:14.215Z,297.71
2023-02-11T21:24:14.176Z,297.98
2023-02-11T21:29:14.083Z,298.52
2023-02-11T21:34:13.967Z,297.45
2023-02-11T21:39:13.935Z,295.59
2023-02-11T21:44:13.842Z,298.25
2023-02-11T21:49:13.797Z,296.38
2023-02-11T21:54:13.728Z,296.65
2023-02-11T21:59:13.676Z,296.91
2023-02-11T22:04:13.600Z,296.12
2023-02-11T22:09:13.551Z,297.18
2023-02-11T22:14:13.463Z,296.91
2023-02-11T22:19:13.409Z,296.65
2023-02-11T22:24:13.337Z,295.33
2023-02-11T22:29:13.344Z,296.91
2023-02-11T22:34:13.180Z,296.65
2023-02-11T22:39:13.142Z,295.86
2023-02-11T22:44:13.196Z,297.98
2023-02-11T22:49:12.993Z,296.91
2023-02-11T22:54:12.913Z,296.65
2023-02-11T22:59:12.854Z,298.52
2023-02-11T23:04:12.807Z,299.05
2023-02-11T23:09:12.717Z,298.25
2023-02-11T23:14:12.678Z,297.98
2023-02-11T23:19:12.616Z,299.60
2023-02-11T23:24:12.528Z,297.45
2023-02-11T23:29:12.462Z,300.95
2023-02-11T23:34:12.387Z,298.79
2023-02-11T23:39:12.346Z,300.68
2023-02-11T23:44:12.236Z,301.77
2023-02-11T23:49:12.216Z,301.23
2023-02-11T23:54:12.131Z,300.95
2023-02-11T23:59:12.078Z,301.50
